sensor_id;sensor_type;location;lat;lon;timestamp;P1;durP1;ratioP1;P2;durP2;ratioP2
24151;SDS011;12311;50.866;4.332;2023-04-16T05:26:12;2.25;;;0.80;;
24151;SDS011;12311;50.866;4.332;2023-04-16T05:28:38;1.75;;;0.70;;
24151;SDS011;12311;50.866;4.332;2023-04-16T05:31:03;11.10;;;1.13;;
24151;SDS011;12311;50.866;4.332;2023-04-16T05:33:29;7.35;;;1.42;;
24151;SDS011;12311;50.866;4.332;2023-04-16T05:35:55;1.17;;;0.90;;
24151;SDS011;12311;50.866;4.332;2023-04-16T05:38:20;6.85;;;1.42;;
24151;SDS011;12311;50.866;4.332;2023-04-16T05:40:46;1.83;;;1.00;;
24151;SDS011;12311;50.866;4.332;2023-04-16T05:43:11;2.60;;;1.27;;
24151;SDS011;12311;50.866;4.332;2023-04-16T05:45:37;3.78;;;0.95;;
24151;SDS011;12311;50.866;4.332;2023-04-16T05:48:05;1.20;;;0.90;;
24151;SDS011;12311;50.866;4.332;2023-04-16T05:50:33;3.90;;;0.88;;
24151;SDS011;12311;50.866;4.332;2023-04-16T05:52:59;1.92;;;1.10;;
24151;SDS011;12311;50.866;4.332;2023-04-16T05:55:24;1.10;;;0.80;;
24151;SDS011;12311;50.866;4.332;2023-04-16T05:57:50;6.95;;;1.70;;
24151;SDS011;12311;50.866;4.332;2023-04-16T06:00:16;1.05;;;1.00;;
24151;SDS011;12311;50.866;4.332;2023-04-16T06:02:42;2.20;;;1.25;;
24151;SDS011;12311;50.866;4.332;2023-04-16T06:05:07;3.97;;;1.45;;
24151;SDS011;12311;50.866;4.332;2023-04-16T06:07:33;1.30;;;0.80;;
24151;SDS011;12311;50.866;4.332;2023-04-16T06:09:59;1.17;;;0.70;;
24151;SDS011;12311;50.866;4.332;2023-04-16T06:12:24;6.85;;;0.80;;
24151;SDS011;12311;50.866;4.332;2023-04-16T06:14:51;2.30;;;1.10;;
24151;SDS011;12311;50.866;4.332;2023-04-16T06:17:16;1.58;;;1.00;;
24151;SDS011;12311;50.866;4.332;2023-04-16T06:19:43;2.50;;;1.42;;
24151;SDS011;12311;50.866;4.332;2023-04-16T06:22:09;1.17;;;0.95;;
24151;SDS011;12311;50.866;4.332;2023-04-16T06:24:35;3.72;;;1.55;;
24151;SDS011;12311;50.866;4.332;2023-04-16T06:27:00;2.53;;;0.93;;
24151;SDS011;12311;50.866;4.332;2023-04-16T06:29:27;1.73;;;0.88;;
24151;SDS011;12311;50.866;4.332;2023-04-16T06:31:54;1.30;;;0.77;;
24151;SDS011;12311;50.866;4.332;2023-04-16T06:34:20;3.25;;;1.85;;
24151;SDS011;12311;50.866;4.332;2023-04-16T06:36:45;3.83;;;1.17;;
24151;SDS011;12311;50.866;4.332;2023-04-16T06:39:11;8.32;;;1.20;;
24151;SDS011;12311;50.866;4.332;2023-04-16T06:41:36;5.97;;;1.38;;
24151;SDS011;12311;50.866;4.332;2023-04-16T06:44:02;2.20;;;0.70;;
24151;SDS011;12311;50.866;4.332;2023-04-16T06:46:28;5.13;;;2.13;;
24151;SDS011;12311;50.866;4.332;2023-04-16T06:48:54;1.58;;;1.08;;
24151;SDS011;12311;50.866;4.332;2023-04-16T06:51:19;1.20;;;1.00;;
24151;SDS011;12311;50.866;4.332;2023-04-16T06:53:45;8.00;;;1.48;;
24151;SDS011;12311;50.866;4.332;2023-04-16T06:56:10;2.20;;;1.20;;
24151;SDS011;12311;50.866;4.332;2023-04-16T06:58:36;3.78;;;1.75;;
24151;SDS011;12311;50.866;4.332;2023-04-16T07:01:02;2.33;;;1.15;;
24151;SDS011;12311;50.866;4.332;2023-04-16T07:03:28;4.90;;;1.55;;
24151;SDS011;12311;50.866;4.332;2023-04-16T07:05:54;2.35;;;1.67;;
24151;SDS011;12311;50.866;4.332;2023-04-16T07:08:20;13.25;;;1.38;;
24151;SDS011;12311;50.866;4.332;2023-04-16T07:10:45;3.38;;;1.83;;
24151;SDS011;12311;50.866;4.332;2023-04-16T07:13:11;4.13;;;1.95;;
24151;SDS011;12311;50.866;4.332;2023-04-16T07:15:37;6.13;;;1.95;;
24151;SDS011;12311;50.866;4.332;2023-04-16T07:18:02;4.93;;;2.03;;
24151;SDS011;12311;50.866;4.332;2023-04-16T07:20:28;2.90;;;1.58;;
24151;SDS011;12311;50.866;4.332;2023-04-16T07:22:54;4.30;;;1.83;;
24151;SDS011;12311;50.866;4.332;2023-04-16T07:25:20;3.50;;;2.00;;
24151;SDS011;12311;50.866;4.332;2023-04-16T07:27:46;2.78;;;1.42;;
24151;SDS011;12311;50.866;4.332;2023-04-16T07:30:11;4.70;;;1.80;;
24151;SDS011;12311;50.866;4.332;2023-04-16T07:32:37;2.55;;;1.52;;
24151;SDS011;12311;50.866;4.332;2023-04-16T07:35:03;3.10;;;1.65;;
24151;SDS011;12311;50.866;4.332;2023-04-16T07:37:29;4.38;;;1.40;;
24151;SDS011;12311;50.866;4.332;2023-04-16T07:39:54;6.10;;;2.25;;
24151;SDS011;12311;50.866;4.332;2023-04-16T07:42:21;2.50;;;1.17;;
24151;SDS011;12311;50.866;4.332;2023-04-16T07:44:47;3.95;;;1.70;;
24151;SDS011;12311;50.866;4.332;2023-04-16T07:47:13;7.20;;;1.67;;
24151;SDS011;12311;50.866;4.332;2023-04-16T07:49:38;5.72;;;2.47;;
24151;SDS011;12311;50.866;4.332;2023-04-16T07:52:04;7.50;;;1.65;;
24151;SDS011;12311;50.866;4.332;2023-04-16T07:54:30;2.50;;;1.63;;
24151;SDS011;12311;50.866;4.332;2023-04-16T07:56:56;4.00;;;1.83;;
24151;SDS011;12311;50.866;4.332;2023-04-16T07:59:21;4.88;;;2.00;;
24151;SDS011;12311;50.866;4.332;2023-04-16T08:01:47;7.95;;;1.92;;
24151;SDS011;12311;50.866;4.332;2023-04-16T08:04:13;5.45;;;2.13;;
24151;SDS011;12311;50.866;4.332;2023-04-16T08:06:41;5.20;;;1.90;;
24151;SDS011;12311;50.866;4.332;2023-04-16T08:09:06;15.40;;;2.83;;
24151;SDS011;12311;50.866;4.332;2023-04-16T08:11:32;4.35;;;2.10;;
24151;SDS011;12311;50.866;4.332;2023-04-16T08:13:58;8.23;;;3.15;;
24151;SDS011;12311;50.866;4.332;2023-04-16T08:16:26;8.95;;;3.00;;
24151;SDS011;12311;50.866;4.332;2023-04-16T08:18:52;6.43;;;2.60;;
24151;SDS011;12311;50.866;4.332;2023-04-16T08:21:17;5.30;;;2.22;;
24151;SDS011;12311;50.866;4.332;2023-04-16T08:23:43;7.13;;;2.45;;
24151;SDS011;12311;50.866;4.332;2023-04-16T08:26:09;5.15;;;2.58;;
24151;SDS011;12311;50.866;4.332;2023-04-16T08:28:35;3.78;;;2.10;;
24151;SDS011;12311;50.866;4.332;2023-04-16T08:31:01;6.97;;;2.58;;
24151;SDS011;12311;50.866;4.332;2023-04-16T08:33:26;4.45;;;2.58;;
24151;SDS011;12311;50.866;4.332;2023-04-16T08:35:52;6.75;;;3.20;;
24151;SDS011;12311;50.866;4.332;2023-04-16T08:38:18;6.18;;;3.08;;
24151;SDS011;12311;50.866;4.332;2023-04-16T08:40:43;4.03;;;2.00;;
24151;SDS011;12311;50.866;4.332;2023-04-16T08:43:11;4.90;;;2.00;;
24151;SDS011;12311;50.866;4.332;2023-04-16T08:45:38;5.72;;;2.42;;
24151;SDS011;12311;50.866;4.332;2023-04-16T08:48:06;5.18;;;2.38;;
24151;SDS011;12311;50.866;4.332;2023-04-16T08:50:35;10.40;;;2.58;;
24151;SDS011;12311;50.866;4.332;2023-04-16T08:53:05;4.43;;;2.30;;
24151;SDS011;12311;50.866;4.332;2023-04-16T08:55:46;7.10;;;2.85;;
24151;SDS011;12311;50.866;4.332;2023-04-16T08:58:14;9.05;;;3.13;;
24151;SDS011;12311;50.866;4.332;2023-04-16T09:00:44;8.57;;;2.55;;
24151;SDS011;12311;50.866;4.332;2023-04-16T09:03:11;6.45;;;2.63;;
24151;SDS011;12311;50.866;4.332;2023-04-16T09:05:37;7.22;;;2.75;;
24151;SDS011;12311;50.866;4.332;2023-04-16T09:08:04;5.10;;;2.28;;
24151;SDS011;12311;50.866;4.332;2023-04-16T09:10:30;5.05;;;2.67;;
24151;SDS011;12311;50.866;4.332;2023-04-16T09:12:56;7.13;;;2.63;;
24151;SDS011;12311;50.866;4.332;2023-04-16T09:15:22;5.50;;;2.80;;
24151;SDS011;12311;50.866;4.332;2023-04-16T09:17:52;9.02;;;2.25;;
24151;SDS011;12311;50.866;4.332;2023-04-16T09:20:18;11.68;;;2.95;;
24151;SDS011;12311;50.866;4.332;2023-04-16T09:22:44;6.35;;;2.95;;
24151;SDS011;12311;50.866;4.332;2023-04-16T09:25:20;4.80;;;2.45;;
24151;SDS011;12311;50.866;4.332;2023-04-16T09:27:49;6.05;;;2.67;;
24151;SDS011;12311;50.866;4.332;2023-04-16T09:32:48;3.97;;;1.92;;
24151;SDS011;12311;50.866;4.332;2023-04-16T09:35:19;5.68;;;2.97;;
24151;SDS011;12311;50.866;4.332;2023-04-16T09:37:55;4.97;;;2.58;;
24151;SDS011;12311;50.866;4.332;2023-04-16T09:40:25;5.95;;;2.60;;
24151;SDS011;12311;50.866;4.332;2023-04-16T09:42:57;6.10;;;2.60;;
24151;SDS011;12311;50.866;4.332;2023-04-16T09:45:24;6.32;;;2.80;;
24151;SDS011;12311;50.866;4.332;2023-04-16T09:47:56;9.50;;;2.97;;
24151;SDS011;12311;50.866;4.332;2023-04-16T09:50:27;11.50;;;3.42;;
24151;SDS011;12311;50.866;4.332;2023-04-16T09:52:53;7.03;;;2.90;;
24151;SDS011;12311;50.866;4.332;2023-04-16T09:55:22;8.98;;;3.28;;
24151;SDS011;12311;50.866;4.332;2023-04-16T09:57:57;9.23;;;3.15;;
24151;SDS011;12311;50.866;4.332;2023-04-16T10:00:26;14.70;;;3.33;;
24151;SDS011;12311;50.866;4.332;2023-04-16T10:03:04;6.50;;;2.92;;
24151;SDS011;12311;50.866;4.332;2023-04-16T10:05:30;6.60;;;2.88;;
24151;SDS011;12311;50.866;4.332;2023-04-16T10:07:58;5.53;;;2.45;;
24151;SDS011;12311;50.866;4.332;2023-04-16T10:10:26;5.88;;;1.95;;
24151;SDS011;12311;50.866;4.332;2023-04-16T10:12:52;6.60;;;2.78;;
24151;SDS011;12311;50.866;4.332;2023-04-16T10:15:19;8.73;;;3.38;;
24151;SDS011;12311;50.866;4.332;2023-04-16T10:17:45;7.45;;;3.10;;
24151;SDS011;12311;50.866;4.332;2023-04-16T10:20:12;8.45;;;2.55;;
24151;SDS011;12311;50.866;4.332;2023-04-16T10:22:39;4.75;;;2.58;;
24151;SDS011;12311;50.866;4.332;2023-04-16T10:25:06;7.18;;;2.42;;
24151;SDS011;12311;50.866;4.332;2023-04-16T10:27:32;7.93;;;2.45;;
24151;SDS011;12311;50.866;4.332;2023-04-16T10:29:59;5.95;;;2.42;;
24151;SDS011;12311;50.866;4.332;2023-04-16T10:32:25;5.68;;;2.50;;
24151;SDS011;12311;50.866;4.332;2023-04-16T10:34:53;5.72;;;2.10;;
24151;SDS011;12311;50.866;4.332;2023-04-16T10:37:27;5.63;;;2.42;;
24151;SDS011;12311;50.866;4.332;2023-04-16T10:39:59;6.03;;;2.72;;
24151;SDS011;12311;50.866;4.332;2023-04-16T10:42:25;5.03;;;2.42;;
24151;SDS011;12311;50.866;4.332;2023-04-16T10:44:51;7.90;;;2.10;;
24151;SDS011;12311;50.866;4.332;2023-04-16T10:47:17;4.85;;;2.30;;
24151;SDS011;12311;50.866;4.332;2023-04-16T10:49:42;10.50;;;2.78;;
24151;SDS011;12311;50.866;4.332;2023-04-16T10:52:09;7.28;;;2.45;;
24151;SDS011;12311;50.866;4.332;2023-04-16T10:54:36;7.05;;;2.72;;
24151;SDS011;12311;50.866;4.332;2023-04-16T10:57:05;10.98;;;2.55;;
24151;SDS011;12311;50.866;4.332;2023-04-16T10:59:34;4.18;;;2.28;;
24151;SDS011;12311;50.866;4.332;2023-04-16T11:02:05;2.55;;;2.20;;
24151;SDS011;12311;50.866;4.332;2023-04-16T11:04:42;9.05;;;2.58;;
24151;SDS011;12311;50.866;4.332;2023-04-16T11:09:42;9.57;;;2.95;;
24151;SDS011;12311;50.866;4.332;2023-04-16T11:12:12;11.25;;;4.55;;
24151;SDS011;12311;50.866;4.332;2023-04-16T11:14:40;3.72;;;2.88;;
24151;SDS011;12311;50.866;4.332;2023-04-16T11:17:06;9.32;;;2.70;;
24151;SDS011;12311;50.866;4.332;2023-04-16T11:19:36;11.27;;;2.72;;
24151;SDS011;12311;50.866;4.332;2023-04-16T11:22:03;5.90;;;2.88;;
24151;SDS011;12311;50.866;4.332;2023-04-16T11:24:29;5.43;;;2.28;;
24151;SDS011;12311;50.866;4.332;2023-04-16T11:26:55;7.20;;;2.63;;
24151;SDS011;12311;50.866;4.332;2023-04-16T11:29:21;5.78;;;2.60;;
24151;SDS011;12311;50.866;4.332;2023-04-16T11:31:50;9.90;;;3.38;;
24151;SDS011;12311;50.866;4.332;2023-04-16T11:34:17;6.07;;;2.95;;
24151;SDS011;12311;50.866;4.332;2023-04-16T11:36:44;4.10;;;2.55;;
24151;SDS011;12311;50.866;4.332;2023-04-16T11:39:10;9.27;;;3.30;;
24151;SDS011;12311;50.866;4.332;2023-04-16T11:47:04;6.28;;;2.70;;
24151;SDS011;12311;50.866;4.332;2023-04-16T11:49:31;5.32;;;2.47;;
24151;SDS011;12311;50.866;4.332;2023-04-16T11:51:57;6.10;;;3.35;;
24151;SDS011;12311;50.866;4.332;2023-04-16T11:54:23;4.22;;;3.03;;
24151;SDS011;12311;50.866;4.332;2023-04-16T11:56:50;8.95;;;2.92;;
24151;SDS011;12311;50.866;4.332;2023-04-16T11:59:21;9.68;;;3.83;;
24151;SDS011;12311;50.866;4.332;2023-04-16T12:01:51;12.05;;;3.38;;
24151;SDS011;12311;50.866;4.332;2023-04-16T12:04:20;6.53;;;2.53;;
24151;SDS011;12311;50.866;4.332;2023-04-16T12:09:37;6.50;;;2.50;;
24151;SDS011;12311;50.866;4.332;2023-04-16T12:12:05;10.35;;;3.72;;
24151;SDS011;12311;50.866;4.332;2023-04-16T12:14:52;6.35;;;3.28;;
24151;SDS011;12311;50.866;4.332;2023-04-16T12:17:20;7.90;;;3.90;;
24151;SDS011;12311;50.866;4.332;2023-04-16T12:22:26;6.07;;;2.88;;
24151;SDS011;12311;50.866;4.332;2023-04-16T12:27:48;12.40;;;2.60;;
24151;SDS011;12311;50.866;4.332;2023-04-16T12:30:23;7.07;;;4.23;;
24151;SDS011;12311;50.866;4.332;2023-04-16T12:32:51;8.15;;;3.00;;
24151;SDS011;12311;50.866;4.332;2023-04-16T12:35:37;6.18;;;3.22;;
24151;SDS011;12311;50.866;4.332;2023-04-16T12:38:03;12.07;;;3.72;;
24151;SDS011;12311;50.866;4.332;2023-04-16T12:40:28;10.20;;;3.70;;
24151;SDS011;12311;50.866;4.332;2023-04-16T12:42:54;8.90;;;3.63;;
24151;SDS011;12311;50.866;4.332;2023-04-16T12:45:20;9.43;;;3.20;;
24151;SDS011;12311;50.866;4.332;2023-04-16T12:47:46;8.32;;;3.33;;
24151;SDS011;12311;50.866;4.332;2023-04-16T12:50:12;12.85;;;3.08;;
24151;SDS011;12311;50.866;4.332;2023-04-16T12:52:38;9.07;;;3.58;;
24151;SDS011;12311;50.866;4.332;2023-04-16T12:55:03;5.45;;;2.80;;
24151;SDS011;12311;50.866;4.332;2023-04-16T12:57:29;7.03;;;3.40;;
24151;SDS011;12311;50.866;4.332;2023-04-16T12:59:55;9.23;;;4.13;;
24151;SDS011;12311;50.866;4.332;2023-04-16T13:02:22;13.32;;;3.92;;
24151;SDS011;12311;50.866;4.332;2023-04-16T13:04:48;6.55;;;2.25;;
24151;SDS011;12311;50.866;4.332;2023-04-16T13:07:15;8.80;;;3.72;;
24151;SDS011;12311;50.866;4.332;2023-04-16T13:09:41;14.73;;;3.00;;
24151;SDS011;12311;50.866;4.332;2023-04-16T13:12:07;8.75;;;3.88;;
24151;SDS011;12311;50.866;4.332;2023-04-16T13:14:33;8.10;;;3.75;;
24151;SDS011;12311;50.866;4.332;2023-04-16T13:16:58;7.30;;;2.92;;
24151;SDS011;12311;50.866;4.332;2023-04-16T13:19:25;9.27;;;3.65;;
24151;SDS011;12311;50.866;4.332;2023-04-16T13:21:51;8.20;;;4.00;;
24151;SDS011;12311;50.866;4.332;2023-04-16T13:24:17;7.18;;;3.22;;
24151;SDS011;12311;50.866;4.332;2023-04-16T13:26:43;7.18;;;2.80;;
24151;SDS011;12311;50.866;4.332;2023-04-16T13:29:09;7.25;;;3.53;;
24151;SDS011;12311;50.866;4.332;2023-04-16T13:31:35;11.20;;;3.42;;
24151;SDS011;12311;50.866;4.332;2023-04-16T13:34:01;9.52;;;3.83;;
24151;SDS011;12311;50.866;4.332;2023-04-16T13:36:27;6.47;;;3.28;;
24151;SDS011;12311;50.866;4.332;2023-04-16T13:38:55;7.70;;;2.42;;
24151;SDS011;12311;50.866;4.332;2023-04-16T13:41:20;8.20;;;3.63;;
24151;SDS011;12311;50.866;4.332;2023-04-16T13:43:46;9.35;;;3.35;;
24151;SDS011;12311;50.866;4.332;2023-04-16T13:46:12;6.65;;;2.97;;
24151;SDS011;12311;50.866;4.332;2023-04-16T13:48:37;7.00;;;3.65;;
24151;SDS011;12311;50.866;4.332;2023-04-16T13:51:03;5.32;;;2.85;;
24151;SDS011;12311;50.866;4.332;2023-04-16T13:53:29;19.15;;;4.53;;
24151;SDS011;12311;50.866;4.332;2023-04-16T13:55:55;8.98;;;3.97;;
24151;SDS011;12311;50.866;4.332;2023-04-16T13:58:21;7.10;;;2.90;;
24151;SDS011;12311;50.866;4.332;2023-04-16T14:00:46;10.43;;;3.05;;
24151;SDS011;12311;50.866;4.332;2023-04-16T14:03:12;10.10;;;2.88;;
24151;SDS011;12311;50.866;4.332;2023-04-16T14:05:38;9.45;;;3.28;;
24151;SDS011;12311;50.866;4.332;2023-04-16T14:08:05;6.07;;;2.92;;
24151;SDS011;12311;50.866;4.332;2023-04-16T14:10:30;14.82;;;3.45;;
24151;SDS011;12311;50.866;4.332;2023-04-16T14:12:56;6.40;;;3.50;;
24151;SDS011;12311;50.866;4.332;2023-04-16T14:15:22;8.82;;;3.05;;
24151;SDS011;12311;50.866;4.332;2023-04-16T14:17:50;6.32;;;2.60;;
24151;SDS011;12311;50.866;4.332;2023-04-16T14:20:16;5.88;;;2.58;;
24151;SDS011;12311;50.866;4.332;2023-04-16T14:22:42;6.40;;;3.28;;
24151;SDS011;12311;50.866;4.332;2023-04-16T14:25:08;6.97;;;3.55;;
24151;SDS011;12311;50.866;4.332;2023-04-16T14:27:34;7.43;;;3.35;;
24151;SDS011;12311;50.866;4.332;2023-04-16T14:30:00;9.35;;;3.28;;
24151;SDS011;12311;50.866;4.332;2023-04-16T14:32:25;4.45;;;2.55;;
24151;SDS011;12311;50.866;4.332;2023-04-16T14:34:51;10.73;;;3.45;;
24151;SDS011;12311;50.866;4.332;2023-04-16T14:37:17;11.27;;;3.78;;
24151;SDS011;12311;50.866;4.332;2023-04-16T14:39:43;7.88;;;3.60;;
24151;SDS011;12311;50.866;4.332;2023-04-16T14:42:09;9.18;;;3.38;;
24151;SDS011;12311;50.866;4.332;2023-04-16T14:44:35;5.80;;;3.45;;
24151;SDS011;12311;50.866;4.332;2023-04-16T14:47:01;8.20;;;4.10;;
24151;SDS011;12311;50.866;4.332;2023-04-16T14:49:26;14.48;;;3.58;;
24151;SDS011;12311;50.866;4.332;2023-04-16T14:51:52;7.72;;;3.90;;
24151;SDS011;12311;50.866;4.332;2023-04-16T14:54:18;9.20;;;3.70;;
24151;SDS011;12311;50.866;4.332;2023-04-16T14:56:44;13.10;;;4.25;;
24151;SDS011;12311;50.866;4.332;2023-04-16T14:59:11;8.23;;;3.15;;
24151;SDS011;12311;50.866;4.332;2023-04-16T15:01:37;8.35;;;3.58;;
24151;SDS011;12311;50.866;4.332;2023-04-16T15:04:05;11.27;;;3.75;;
24151;SDS011;12311;50.866;4.332;2023-04-16T15:06:32;9.93;;;3.22;;
24151;SDS011;12311;50.866;4.332;2023-04-16T15:08:58;7.18;;;3.70;;
24151;SDS011;12311;50.866;4.332;2023-04-16T15:11:24;7.22;;;2.72;;
24151;SDS011;12311;50.866;4.332;2023-04-16T15:13:49;13.18;;;4.05;;
24151;SDS011;12311;50.866;4.332;2023-04-16T15:16:15;8.70;;;3.08;;
24151;SDS011;12311;50.866;4.332;2023-04-16T15:18:41;5.20;;;2.83;;
24151;SDS011;12311;50.866;4.332;2023-04-16T15:21:07;7.82;;;2.65;;
24151;SDS011;12311;50.866;4.332;2023-04-16T15:23:33;8.20;;;3.25;;
24151;SDS011;12311;50.866;4.332;2023-04-16T15:25:59;7.40;;;2.55;;
24151;SDS011;12311;50.866;4.332;2023-04-16T15:28:24;7.47;;;2.80;;
24151;SDS011;12311;50.866;4.332;2023-04-16T15:30:51;5.65;;;2.88;;
24151;SDS011;12311;50.866;4.332;2023-04-16T15:33:19;5.88;;;2.75;;
24151;SDS011;12311;50.866;4.332;2023-04-16T15:35:45;5.07;;;2.88;;
24151;SDS011;12311;50.866;4.332;2023-04-16T15:38:10;5.63;;;3.03;;
24151;SDS011;12311;50.866;4.332;2023-04-16T15:40:36;6.50;;;3.15;;
24151;SDS011;12311;50.866;4.332;2023-04-16T15:43:02;7.22;;;3.15;;
24151;SDS011;12311;50.866;4.332;2023-04-16T15:45:29;11.88;;;3.95;;
24151;SDS011;12311;50.866;4.332;2023-04-16T15:47:56;9.48;;;3.30;;
24151;SDS011;12311;50.866;4.332;2023-04-16T15:50:21;7.22;;;3.60;;
24151;SDS011;12311;50.866;4.332;2023-04-16T15:52:47;10.23;;;3.72;;
24151;SDS011;12311;50.866;4.332;2023-04-16T15:55:13;13.25;;;3.70;;
24151;SDS011;12311;50.866;4.332;2023-04-16T15:57:40;8.60;;;3.50;;
24151;SDS011;12311;50.866;4.332;2023-04-16T16:00:06;11.43;;;3.38;;
24151;SDS011;12311;50.866;4.332;2023-04-16T16:02:41;8.45;;;3.92;;
24151;SDS011;12311;50.866;4.332;2023-04-16T16:05:14;9.32;;;4.05;;
24151;SDS011;12311;50.866;4.332;2023-04-16T16:07:40;7.97;;;4.28;;
24151;SDS011;12311;50.866;4.332;2023-04-16T16:10:07;6.80;;;4.03;;
24151;SDS011;12311;50.866;4.332;2023-04-16T16:12:34;11.75;;;4.88;;
24151;SDS011;12311;50.866;4.332;2023-04-16T16:15:01;5.88;;;3.35;;
24151;SDS011;12311;50.866;4.332;2023-04-16T16:17:27;5.25;;;3.38;;
24151;SDS011;12311;50.866;4.332;2023-04-16T16:19:53;6.80;;;3.83;;
24151;SDS011;12311;50.866;4.332;2023-04-16T16:22:21;13.10;;;4.18;;
24151;SDS011;12311;50.866;4.332;2023-04-16T16:24:48;10.98;;;3.30;;
24151;SDS011;12311;50.866;4.332;2023-04-16T16:27:15;7.63;;;3.70;;
24151;SDS011;12311;50.866;4.332;2023-04-16T16:29:41;6.57;;;3.25;;
24151;SDS011;12311;50.866;4.332;2023-04-16T16:32:07;8.55;;;4.25;;
24151;SDS011;12311;50.866;4.332;2023-04-16T16:34:33;8.35;;;4.28;;
24151;SDS011;12311;50.866;4.332;2023-04-16T16:36:58;14.63;;;5.13;;
24151;SDS011;12311;50.866;4.332;2023-04-16T16:39:25;14.15;;;5.32;;
24151;SDS011;12311;50.866;4.332;2023-04-16T16:41:52;10.32;;;4.78;;
24151;SDS011;12311;50.866;4.332;2023-04-16T16:44:18;10.00;;;4.60;;
24151;SDS011;12311;50.866;4.332;2023-04-16T16:46:44;8.25;;;4.28;;
24151;SDS011;12311;50.866;4.332;2023-04-16T16:49:11;9.55;;;3.80;;
24151;SDS011;12311;50.866;4.332;2023-04-16T16:51:37;10.60;;;4.05;;
24151;SDS011;12311;50.866;4.332;2023-04-16T16:54:04;8.43;;;4.47;;
24151;SDS011;12311;50.866;4.332;2023-04-16T16:56:31;7.38;;;4.10;;
24151;SDS011;12311;50.866;4.332;2023-04-16T16:58:57;10.52;;;3.92;;
24151;SDS011;12311;50.866;4.332;2023-04-16T17:01:23;8.93;;;4.50;;
24151;SDS011;12311;50.866;4.332;2023-04-16T17:03:49;9.70;;;4.35;;
24151;SDS011;12311;50.866;4.332;2023-04-16T17:06:15;15.00;;;4.93;;
24151;SDS011;12311;50.866;4.332;2023-04-16T17:08:41;10.60;;;4.93;;
24151;SDS011;12311;50.866;4.332;2023-04-16T17:11:07;12.48;;;5.30;;
24151;SDS011;12311;50.866;4.332;2023-04-16T17:13:32;12.07;;;5.43;;
24151;SDS011;12311;50.866;4.332;2023-04-16T17:15:58;14.82;;;5.95;;
24151;SDS011;12311;50.866;4.332;2023-04-16T17:18:26;12.15;;;5.35;;
24151;SDS011;12311;50.866;4.332;2023-04-16T17:20:52;11.27;;;4.65;;
24151;SDS011;12311;50.866;4.332;2023-04-16T17:23:18;14.90;;;6.63;;
24151;SDS011;12311;50.866;4.332;2023-04-16T17:25:43;11.13;;;5.03;;
24151;SDS011;12311;50.866;4.332;2023-04-16T17:28:09;13.73;;;5.75;;
24151;SDS011;12311;50.866;4.332;2023-04-16T17:30:35;12.27;;;5.63;;
24151;SDS011;12311;50.866;4.332;2023-04-16T17:33:01;13.13;;;5.45;;
24151;SDS011;12311;50.866;4.332;2023-04-16T17:35:28;11.85;;;5.55;;
24151;SDS011;12311;50.866;4.332;2023-04-16T17:37:54;9.93;;;4.57;;
24151;SDS011;12311;50.866;4.332;2023-04-16T17:40:20;11.35;;;5.10;;
24151;SDS011;12311;50.866;4.332;2023-04-16T17:42:46;12.88;;;5.90;;
24151;SDS011;12311;50.866;4.332;2023-04-16T17:45:13;13.25;;;5.45;;
24151;SDS011;12311;50.866;4.332;2023-04-16T17:47:39;15.27;;;6.25;;
24151;SDS011;12311;50.866;4.332;2023-04-16T17:50:05;14.98;;;5.65;;
24151;SDS011;12311;50.866;4.332;2023-04-16T17:52:32;15.88;;;5.32;;
24151;SDS011;12311;50.866;4.332;2023-04-16T17:54:58;15.68;;;5.80;;
24151;SDS011;12311;50.866;4.332;2023-04-16T17:57:27;11.30;;;4.95;;
24151;SDS011;12311;50.866;4.332;2023-04-16T17:59:53;14.38;;;5.13;;
24151;SDS011;12311;50.866;4.332;2023-04-16T18:02:19;12.52;;;5.65;;
24151;SDS011;12311;50.866;4.332;2023-04-16T18:04:45;16.58;;;4.95;;
24151;SDS011;12311;50.866;4.332;2023-04-16T18:07:12;13.65;;;5.47;;
24151;SDS011;12311;50.866;4.332;2023-04-16T18:09:38;11.57;;;4.53;;
24151;SDS011;12311;50.866;4.332;2023-04-16T18:12:03;13.93;;;5.63;;
24151;SDS011;12311;50.866;4.332;2023-04-16T18:14:30;17.42;;;5.65;;
24151;SDS011;12311;50.866;4.332;2023-04-16T18:16:58;10.98;;;5.28;;
24151;SDS011;12311;50.866;4.332;2023-04-16T18:19:25;11.38;;;5.13;;
24151;SDS011;12311;50.866;4.332;2023-04-16T18:21:51;13.70;;;5.22;;
24151;SDS011;12311;50.866;4.332;2023-04-16T18:24:17;11.45;;;5.03;;
24151;SDS011;12311;50.866;4.332;2023-04-16T18:26:43;10.50;;;5.10;;
24151;SDS011;12311;50.866;4.332;2023-04-16T18:29:08;12.38;;;5.28;;
24151;SDS011;12311;50.866;4.332;2023-04-16T18:31:34;17.48;;;6.22;;
24151;SDS011;12311;50.866;4.332;2023-04-16T18:34:00;16.35;;;6.90;;
24151;SDS011;12311;50.866;4.332;2023-04-16T18:36:25;14.95;;;6.45;;
24151;SDS011;12311;50.866;4.332;2023-04-16T18:38:51;15.52;;;6.63;;
24151;SDS011;12311;50.866;4.332;2023-04-16T18:41:20;15.63;;;5.35;;
24151;SDS011;12311;50.866;4.332;2023-04-16T18:43:46;13.93;;;6.05;;
24151;SDS011;12311;50.866;4.332;2023-04-16T18:46:12;12.63;;;6.03;;
24151;SDS011;12311;50.866;4.332;2023-04-16T18:48:38;13.13;;;5.97;;
24151;SDS011;12311;50.866;4.332;2023-04-16T18:51:04;13.52;;;5.75;;
24151;SDS011;12311;50.866;4.332;2023-04-16T18:53:31;11.50;;;5.40;;
24151;SDS011;12311;50.866;4.332;2023-04-16T18:55:56;13.98;;;6.70;;
24151;SDS011;12311;50.866;4.332;2023-04-16T18:58:23;16.38;;;6.70;;
24151;SDS011;12311;50.866;4.332;2023-04-16T19:00:52;16.67;;;7.30;;
24151;SDS011;12311;50.866;4.332;2023-04-16T19:03:19;13.65;;;6.68;;
24151;SDS011;12311;50.866;4.332;2023-04-16T19:05:45;12.05;;;5.28;;
24151;SDS011;12311;50.866;4.332;2023-04-16T19:08:11;22.15;;;6.72;;
24151;SDS011;12311;50.866;4.332;2023-04-16T19:10:37;14.95;;;6.03;;
24151;SDS011;12311;50.866;4.332;2023-04-16T19:13:02;14.25;;;5.38;;
24151;SDS011;12311;50.866;4.332;2023-04-16T19:15:28;13.75;;;6.78;;
24151;SDS011;12311;50.866;4.332;2023-04-16T19:17:54;18.67;;;5.05;;
24151;SDS011;12311;50.866;4.332;2023-04-16T19:20:20;15.55;;;7.40;;
24151;SDS011;12311;50.866;4.332;2023-04-16T19:22:46;15.00;;;6.03;;
24151;SDS011;12311;50.866;4.332;2023-04-16T19:25:11;18.67;;;7.50;;
24151;SDS011;12311;50.866;4.332;2023-04-16T19:27:37;14.38;;;6.20;;
24151;SDS011;12311;50.866;4.332;2023-04-16T19:30:04;12.45;;;5.60;;
24151;SDS011;12311;50.866;4.332;2023-04-16T19:32:30;14.02;;;5.95;;
24151;SDS011;12311;50.866;4.332;2023-04-16T19:34:56;14.68;;;7.45;;
24151;SDS011;12311;50.866;4.332;2023-04-16T19:37:22;13.35;;;5.93;;
24151;SDS011;12311;50.866;4.332;2023-04-16T19:39:47;12.75;;;5.70;;
24151;SDS011;12311;50.866;4.332;2023-04-16T19:42:13;15.27;;;6.10;;
24151;SDS011;12311;50.866;4.332;2023-04-16T19:44:39;18.08;;;6.80;;
24151;SDS011;12311;50.866;4.332;2023-04-16T19:47:05;15.20;;;6.25;;
24151;SDS011;12311;50.866;4.332;2023-04-16T19:49:31;20.77;;;6.60;;
24151;SDS011;12311;50.866;4.332;2023-04-16T19:51:56;18.50;;;6.22;;
24151;SDS011;12311;50.866;4.332;2023-04-16T19:54:22;12.05;;;5.60;;
24151;SDS011;12311;50.866;4.332;2023-04-16T19:56:48;23.08;;;7.65;;
24151;SDS011;12311;50.866;4.332;2023-04-16T19:59:15;13.93;;;6.78;;
24151;SDS011;12311;50.866;4.332;2023-04-16T20:01:41;20.40;;;6.60;;
24151;SDS011;12311;50.866;4.332;2023-04-16T20:04:07;15.80;;;5.32;;
24151;SDS011;12311;50.866;4.332;2023-04-16T20:06:33;15.93;;;5.68;;
24151;SDS011;12311;50.866;4.332;2023-04-16T20:08:58;15.48;;;6.78;;
24151;SDS011;12311;50.866;4.332;2023-04-16T20:11:24;16.08;;;6.60;;
24151;SDS011;12311;50.866;4.332;2023-04-16T20:13:50;13.75;;;5.53;;
24151;SDS011;12311;50.866;4.332;2023-04-16T20:16:16;15.05;;;6.00;;
24151;SDS011;12311;50.866;4.332;2023-04-16T20:18:47;10.90;;;6.78;;
24151;SDS011;12311;50.866;4.332;2023-04-16T20:21:14;18.38;;;7.30;;
24151;SDS011;12311;50.866;4.332;2023-04-16T20:23:40;14.60;;;6.78;;